sensor_id;sensor_type;location;lat;lon;timestamp;pressure;altitude;pressure_sealevel;temperature;humidity
61710;BME280;47633;51.494;5.386;2023-04-06T00:00:08;101726.53;;;18.67;31.42
61710;BME280;47633;51.494;5.386;2023-04-06T00:02:34;101722.19;;;18.66;31.35
61710;BME280;47633;51.494;5.386;2023-04-06T00:04:59;101721.25;;;18.67;31.37
61710;BME280;47633;51.494;5.386;2023-04-06T00:07:25;101720.50;;;18.65;31.22
61710;BME280;47633;51.494;5.386;2023-04-06T00:09:51;101722.09;;;18.68;31.51
61710;BME280;47633;51.494;5.386;2023-04-06T00:12:16;101709.94;;;18.65;31.62
61710;BME280;47633;51.494;5.386;2023-04-06T00:14:42;101709.00;;;18.66;31.53
61710;BME280;47633;51.494;5.386;2023-04-06T00:17:07;101710.69;;;18.67;31.35
61710;BME280;47633;51.494;5.386;2023-04-06T00:19:33;101710.69;;;18.67;31.43
61710;BME280;47633;51.494;5.386;2023-04-06T00:21:58;101702.88;;;18.66;31.23
61710;BME280;47633;51.494;5.386;2023-04-06T00:24:23;101700.47;;;18.63;31.18
61710;BME280;47633;51.494;5.386;2023-04-06T00:26:48;101701.41;;;18.62;31.31
61710;BME280;47633;51.494;5.386;2023-04-06T00:29:14;101691.88;;;18.59;31.23
61710;BME280;47633;51.494;5.386;2023-04-06T00:31:40;101698.03;;;18.60;31.09
61710;BME280;47633;51.494;5.386;2023-04-06T00:34:05;101692.84;;;18.58;31.08
61710;BME280;47633;51.494;5.386;2023-04-06T00:36:31;101692.97;;;18.57;30.97
61710;BME280;47633;51.494;5.386;2023-04-06T00:38:56;101693.91;;;18.56;31.31
61710;BME280;47633;51.494;5.386;2023-04-06T00:41:22;101692.97;;;18.57;31.18
61710;BME280;47633;51.494;5.386;2023-04-06T00:43:47;101688.63;;;18.56;31.04
61710;BME280;47633;51.494;5.386;2023-04-06T00:46:12;101683.66;;;18.51;31.19
61710;BME280;47633;51.494;5.386;2023-04-06T00:48:37;101681.75;;;18.53;31.13
61710;BME280;47633;51.494;5.386;2023-04-06T00:51:04;101685.47;;;18.51;31.21
61710;BME280;47633;51.494;5.386;2023-04-06T00:53:29;101677.66;;;18.49;31.04
61710;BME280;47633;51.494;5.386;2023-04-06T00:55:54;101675.75;;;18.51;31.12
61710;BME280;47633;51.494;5.386;2023-04-06T00:58:20;101676.06;;;18.46;31.22
61710;BME280;47633;51.494;5.386;2023-04-06T01:00:45;101667.31;;;18.46;31.06
61710;BME280;47633;51.494;5.386;2023-04-06T01:03:11;101677.75;;;18.47;31.34
61710;BME280;47633;51.494;5.386;2023-04-06T01:05:36;101662.13;;;18.44;31.31
61710;BME280;47633;51.494;5.386;2023-04-06T01:08:06;101662.13;;;18.44;31.24
61710;BME280;47633;51.494;5.386;2023-04-06T01:10:31;101666.47;;;18.45;31.22
61710;BME280;47633;51.494;5.386;2023-04-06T01:12:56;101647.25;;;18.43;31.42
61710;BME280;47633;51.494;5.386;2023-04-06T01:15:22;101652.41;;;18.45;31.06
61710;BME280;47633;51.494;5.386;2023-04-06T01:17:48;101652.41;;;18.45;31.03
61710;BME280;47633;51.494;5.386;2023-04-06T01:20:14;101660.22;;;18.46;31.03
61710;BME280;47633;51.494;5.386;2023-04-06T01:22:39;101652.41;;;18.45;31.09
61710;BME280;47633;51.494;5.386;2023-04-06T01:25:05;101655.16;;;18.43;30.90
61710;BME280;47633;51.494;5.386;2023-04-06T01:27:31;101654.31;;;18.43;31.03
61710;BME280;47633;51.494;5.386;2023-04-06T01:29:56;101646.50;;;18.41;31.03
61710;BME280;47633;51.494;5.386;2023-04-06T01:32:21;101653.59;;;18.41;31.19
61710;BME280;47633;51.494;5.386;2023-04-06T01:34:46;101647.44;;;18.40;30.90
61710;BME280;47633;51.494;5.386;2023-04-06T01:37:12;101643.97;;;18.40;30.91
61710;BME280;47633;51.494;5.386;2023-04-06T01:39:37;101643.13;;;18.39;31.08
61710;BME280;47633;51.494;5.386;2023-04-06T01:42:02;101639.84;;;18.36;31.10
61710;BME280;47633;51.494;5.386;2023-04-06T01:44:28;101645.88;;;18.38;30.99
61710;BME280;47633;51.494;5.386;2023-04-06T01:46:55;101631.09;;;18.35;31.03
61710;BME280;47633;51.494;5.386;2023-04-06T01:49:21;101629.44;;;18.34;30.81
61710;BME280;47633;51.494;5.386;2023-04-06T01:51:46;101627.72;;;18.33;31.14
61710;BME280;47633;51.494;5.386;2023-04-06T01:54:12;101619.91;;;18.31;31.09
61710;BME280;47633;51.494;5.386;2023-04-06T01:56:37;101625.81;;;18.35;31.13
61710;BME280;47633;51.494;5.386;2023-04-06T01:59:02;101617.19;;;18.33;30.77
61710;BME280;47633;51.494;5.386;2023-04-06T02:01:27;101618.00;;;18.34;31.06
61710;BME280;47633;51.494;5.386;2023-04-06T02:03:53;101617.06;;;18.35;30.95
61710;BME280;47633;51.494;5.386;2023-04-06T02:06:18;101614.53;;;18.33;31.04
61710;BME280;47633;51.494;5.386;2023-04-06T02:08:43;101611.78;;;18.35;30.76
61710;BME280;47633;51.494;5.386;2023-04-06T02:11:09;101611.06;;;18.33;30.87
61710;BME280;47633;51.494;5.386;2023-04-06T02:13:34;101611.28;;;18.29;31.05
61710;BME280;47633;51.494;5.386;2023-04-06T02:15:59;101606.84;;;18.30;31.11
61710;BME280;47633;51.494;5.386;2023-04-06T02:18:25;101598.63;;;18.22;31.07
61710;BME280;47633;51.494;5.386;2023-04-06T02:20:50;101608.75;;;18.28;31.10
61710;BME280;47633;51.494;5.386;2023-04-06T02:23:16;101591.22;;;18.27;31.06
61710;BME280;47633;51.494;5.386;2023-04-06T02:25:41;101596.50;;;18.27;30.88
61710;BME280;47633;51.494;5.386;2023-04-06T02:28:07;101593.13;;;18.25;30.96
61710;BME280;47633;51.494;5.386;2023-04-06T02:30:32;101602.72;;;18.26;30.96
61710;BME280;47633;51.494;5.386;2023-04-06T02:32:59;101594.91;;;18.24;30.86
61710;BME280;47633;51.494;5.386;2023-04-06T02:35:25;101594.78;;;18.26;30.96
61710;BME280;47633;51.494;5.386;2023-04-06T02:37:50;101581.72;;;18.24;30.80
61710;BME280;47633;51.494;5.386;2023-04-06T02:40:15;101581.59;;;18.26;30.80
61710;BME280;47633;51.494;5.386;2023-04-06T02:42:41;101574.75;;;18.23;30.75
61710;BME280;47633;51.494;5.386;2023-04-06T02:45:06;101578.13;;;18.25;30.94
61710;BME280;47633;51.494;5.386;2023-04-06T02:47:33;101579.06;;;18.24;30.83
61710;BME280;47633;51.494;5.386;2023-04-06T02:49:58;101571.25;;;18.23;30.79
61710;BME280;47633;51.494;5.386;2023-04-06T02:52:23;101572.03;;;18.25;30.62
61710;BME280;47633;51.494;5.386;2023-04-06T02:54:48;101568.50;;;18.24;30.88
61710;BME280;47633;51.494;5.386;2023-04-06T02:57:16;101566.84;;;18.23;30.71
61710;BME280;47633;51.494;5.386;2023-04-06T02:59:41;101564.44;;;18.20;30.76
61710;BME280;47633;51.494;5.386;2023-04-06T03:02:06;101567.06;;;18.20;30.74
61710;BME280;47633;51.494;5.386;2023-04-06T03:04:31;101561.03;;;18.18;30.95
61710;BME280;47633;51.494;5.386;2023-04-06T03:06:57;101559.38;;;18.17;30.88
61710;BME280;47633;51.494;5.386;2023-04-06T03:09:22;101563.91;;;18.15;30.93
61710;BME280;47633;51.494;5.386;2023-04-06T03:11:47;101555.88;;;18.17;30.97
61710;BME280;47633;51.494;5.386;2023-04-06T03:14:12;101549.75;;;18.16;30.83
61710;BME280;47633;51.494;5.386;2023-04-06T03:16:38;101556.63;;;18.19;30.89
61710;BME280;47633;51.494;5.386;2023-04-06T03:19:03;101546.06;;;18.19;30.93
61710;BME280;47633;51.494;5.386;2023-04-06T03:21:28;101552.38;;;18.16;30.80
61710;BME280;47633;51.494;5.386;2023-04-06T03:23:54;101542.56;;;18.18;30.93
61710;BME280;47633;51.494;5.386;2023-04-06T03:26:19;101538.47;;;18.14;30.75
61710;BME280;47633;51.494;5.386;2023-04-06T03:28:45;101545.34;;;18.17;30.77
61710;BME280;47633;51.494;5.386;2023-04-06T03:31:10;101535.63;;;18.17;30.75
61710;BME280;47633;51.494;5.386;2023-04-06T03:33:35;101541.94;;;18.15;31.02
61710;BME280;47633;51.494;5.386;2023-04-06T03:36:01;101538.47;;;18.14;30.94
61710;BME280;47633;51.494;5.386;2023-04-06T03:38:26;101536.78;;;18.13;30.91
61710;BME280;47633;51.494;5.386;2023-04-06T03:40:51;101535.94;;;18.12;30.82
61710;BME280;47633;51.494;5.386;2023-04-06T03:43:16;101533.41;;;18.11;31.04
61710;BME280;47633;51.494;5.386;2023-04-06T03:45:42;101539.50;;;18.11;31.11
61710;BME280;47633;51.494;5.386;2023-04-06T03:48:07;101535.22;;;18.10;31.12
61710;BME280;47633;51.494;5.386;2023-04-06T03:50:32;101535.94;;;18.12;31.16
61710;BME280;47633;51.494;5.386;2023-04-06T03:52:57;101542.91;;;18.13;30.89
61710;BME280;47633;51.494;5.386;2023-04-06T03:55:22;101533.31;;;18.12;31.11
61710;BME280;47633;51.494;5.386;2023-04-06T03:57:48;101532.47;;;18.12;31.10
61710;BME280;47633;51.494;5.386;2023-04-06T04:00:13;101537.75;;;18.12;30.72
61710;BME280;47633;51.494;5.386;2023-04-06T04:02:39;101528.25;;;18.09;31.00
61710;BME280;47633;51.494;5.386;2023-04-06T04:05:05;101538.69;;;18.11;30.84
61710;BME280;47633;51.494;5.386;2023-04-06T04:07:30;101537.84;;;18.10;30.84
61710;BME280;47633;51.494;5.386;2023-04-06T04:09:55;101530.88;;;18.09;30.86
61710;BME280;47633;51.494;5.386;2023-04-06T04:12:21;101536.25;;;18.08;30.87
61710;BME280;47633;51.494;5.386;2023-04-06T04:14:46;101534.66;;;18.05;30.91
61710;BME280;47633;51.494;5.386;2023-04-06T04:17:11;101530.38;;;18.04;30.87
61710;BME280;47633;51.494;5.386;2023-04-06T04:19:37;101531.31;;;18.03;31.21
61710;BME280;47633;51.494;5.386;2023-04-06T04:22:02;101538.28;;;18.04;31.22
61710;BME280;47633;51.494;5.386;2023-04-06T04:24:30;101541.63;;;18.06;30.91
61710;BME280;47633;51.494;5.386;2023-04-06T04:26:55;101528.34;;;18.08;30.91
61710;BME280;47633;51.494;5.386;2023-04-06T04:29:21;101537.09;;;18.08;30.72
61710;BME280;47633;51.494;5.386;2023-04-06T04:31:48;101532.78;;;18.07;30.90
61710;BME280;47633;51.494;5.386;2023-04-06T04:34:14;101530.16;;;18.07;30.92
61710;BME280;47633;51.494;5.386;2023-04-06T04:36:40;101529.38;;;18.05;30.74
61710;BME280;47633;51.494;5.386;2023-04-06T04:39:07;101528.66;;;18.03;31.02
61710;BME280;47633;51.494;5.386;2023-04-06T04:41:32;101529.59;;;18.02;31.07
61710;BME280;47633;51.494;5.386;2023-04-06T04:43:57;101525.63;;;17.97;31.36
61710;BME280;47633;51.494;5.386;2023-04-06T04:46:22;101527.22;;;17.99;31.10
61710;BME280;47633;51.494;5.386;2023-04-06T04:48:48;101523.81;;;17.97;31.72
61710;BME280;47633;51.494;5.386;2023-04-06T04:51:13;101517.59;;;17.98;32.04
61710;BME280;47633;51.494;5.386;2023-04-06T04:53:38;101523.38;;;18.03;31.90
61710;BME280;47633;51.494;5.386;2023-04-06T04:56:03;101519.72;;;18.06;32.06
61710;BME280;47633;51.494;5.386;2023-04-06T04:58:29;101519.59;;;18.07;32.14
61710;BME280;47633;51.494;5.386;2023-04-06T05:00:54;101509.88;;;18.08;31.89
61710;BME280;47633;51.494;5.386;2023-04-06T05:03:22;101503.34;;;18.13;31.85
61710;BME280;47633;51.494;5.386;2023-04-06T05:05:48;101511.75;;;18.19;32.01
61710;BME280;47633;51.494;5.386;2023-04-06T05:08:13;101512.50;;;18.21;32.04
61710;BME280;47633;51.494;5.386;2023-04-06T05:10:38;101507.09;;;18.22;31.75
61710;BME280;47633;51.494;5.386;2023-04-06T05:13:04;101512.16;;;18.25;32.00
61710;BME280;47633;51.494;5.386;2023-04-06T05:15:29;101507.72;;;18.26;31.80
61710;BME280;47633;51.494;5.386;2023-04-06T05:17:55;101512.66;;;18.30;31.63
61710;BME280;47633;51.494;5.386;2023-04-06T05:20:20;101504.66;;;18.32;31.68
61710;BME280;47633;51.494;5.386;2023-04-06T05:22:45;101510.78;;;18.33;31.63
61710;BME280;47633;51.494;5.386;2023-04-06T05:25:11;101512.34;;;18.35;31.69
61710;BME280;47633;51.494;5.386;2023-04-06T05:27:36;101506.13;;;18.36;32.11
61710;BME280;47633;51.494;5.386;2023-04-06T05:30:02;101516.47;;;18.39;31.65
61710;BME280;47633;51.494;5.386;2023-04-06T05:32:27;101514.78;;;18.38;31.48
61710;BME280;47633;51.494;5.386;2023-04-06T05:34:53;101512.03;;;18.40;31.58
61710;BME280;47633;51.494;5.386;2023-04-06T05:37:18;101514.56;;;18.41;31.76
61710;BME280;47633;51.494;5.386;2023-04-06T05:39:43;101514.13;;;18.47;31.57
61710;BME280;47633;51.494;5.386;2023-04-06T05:42:09;101519.16;;;18.51;32.15
61710;BME280;47633;51.494;5.386;2023-04-06T05:44:36;101517.38;;;18.51;32.09
61710;BME280;47633;51.494;5.386;2023-04-06T05:47:02;101509.22;;;18.54;32.28
61710;BME280;47633;51.494;5.386;2023-04-06T05:49:27;101515.13;;;18.58;32.15
61710;BME280;47633;51.494;5.386;2023-04-06T05:51:52;101515.97;;;18.58;32.00
61710;BME280;47633;51.494;5.386;2023-04-06T05:54:18;101509.00;;;18.57;32.26
61710;BME280;47633;51.494;5.386;2023-04-06T05:56:43;101508.91;;;18.59;32.52
61710;BME280;47633;51.494;5.386;2023-04-06T05:59:08;101508.78;;;18.60;32.40
61710;BME280;47633;51.494;5.386;2023-04-06T06:01:33;101508.56;;;18.63;32.70
61710;BME280;47633;51.494;5.386;2023-04-06T06:04:00;101501.47;;;18.64;32.66
61710;BME280;47633;51.494;5.386;2023-04-06T06:06:27;101500.75;;;18.62;32.85
61710;BME280;47633;51.494;5.386;2023-04-06T06:08:52;101522.25;;;18.68;32.63
61710;BME280;47633;51.494;5.386;2023-04-06T06:11:18;101522.88;;;18.72;32.43
61710;BME280;47633;51.494;5.386;2023-04-06T06:13:43;101515.94;;;18.71;32.73
61710;BME280;47633;51.494;5.386;2023-04-06T06:16:08;101513.91;;;18.75;32.73
61710;BME280;47633;51.494;5.386;2023-04-06T06:18:34;101519.19;;;18.75;32.83
61710;BME280;47633;51.494;5.386;2023-04-06T06:20:59;101517.25;;;18.77;33.19
61710;BME280;47633;51.494;5.386;2023-04-06T06:23:25;101517.16;;;18.78;32.98
61710;BME280;47633;51.494;5.386;2023-04-06T06:25:50;101519.78;;;18.78;33.35
61710;BME280;47633;51.494;5.386;2023-04-06T06:28:15;101502.06;;;18.80;32.96
61710;BME280;47633;51.494;5.386;2023-04-06T06:30:41;101509.97;;;18.80;33.30
61710;BME280;47633;51.494;5.386;2023-04-06T06:33:06;101506.25;;;18.83;33.10
61710;BME280;47633;51.494;5.386;2023-04-06T06:35:32;101514.69;;;18.88;33.10
61710;BME280;47633;51.494;5.386;2023-04-06T06:37:57;101519.03;;;18.89;33.22
61710;BME280;47633;51.494;5.386;2023-04-06T06:40:22;101512.69;;;18.92;33.20
61710;BME280;47633;51.494;5.386;2023-04-06T06:42:49;101515.34;;;18.92;33.26
61710;BME280;47633;51.494;5.386;2023-04-06T06:45:15;101508.97;;;18.94;33.29
61710;BME280;47633;51.494;5.386;2023-04-06T06:47:40;101515.94;;;18.95;33.08
61710;BME280;47633;51.494;5.386;2023-04-06T06:50:06;101511.59;;;18.94;33.07
61710;BME280;47633;51.494;5.386;2023-04-06T06:52:31;101511.84;;;18.91;33.20
61710;BME280;47633;51.494;5.386;2023-04-06T06:54:57;101511.72;;;18.93;33.13
61710;BME280;47633;51.494;5.386;2023-04-06T06:57:22;101513.53;;;18.92;33.04
61710;BME280;47633;51.494;5.386;2023-04-06T06:59:47;101511.13;;;18.89;33.07
61710;BME280;47633;51.494;5.386;2023-04-06T07:02:13;101510.78;;;18.94;32.99
61710;BME280;47633;51.494;5.386;2023-04-06T07:04:38;101515.22;;;18.93;32.96
61710;BME280;47633;51.494;5.386;2023-04-06T07:07:03;101509.94;;;18.93;32.89
61710;BME280;47633;51.494;5.386;2023-04-06T07:09:29;101505.00;;;18.89;32.95
61710;BME280;47633;51.494;5.386;2023-04-06T07:11:54;101503.31;;;18.88;32.91
61710;BME280;47633;51.494;5.386;2023-04-06T07:14:21;101510.41;;;18.87;33.09
61710;BME280;47633;51.494;5.386;2023-04-06T07:16:46;101506.78;;;18.88;33.10
61710;BME280;47633;51.494;5.386;2023-04-06T07:19:13;101501.59;;;18.87;32.95
61710;BME280;47633;51.494;5.386;2023-04-06T07:21:39;101515.56;;;18.89;32.67
61710;BME280;47633;51.494;5.386;2023-04-06T07:24:04;101498.97;;;18.87;32.71
61710;BME280;47633;51.494;5.386;2023-04-06T07:26:30;101506.06;;;18.86;32.97
61710;BME280;47633;51.494;5.386;2023-04-06T07:28:55;101506.16;;;18.84;33.06
61710;BME280;47633;51.494;5.386;2023-04-06T07:31:20;101499.94;;;18.85;32.91
61710;BME280;47633;51.494;5.386;2023-04-06T07:33:45;101497.91;;;18.89;32.94
61710;BME280;47633;51.494;5.386;2023-04-06T07:36:12;101495.38;;;18.88;33.10
61710;BME280;47633;51.494;5.386;2023-04-06T07:38:37;101497.69;;;18.92;33.34
61710;BME280;47633;51.494;5.386;2023-04-06T07:41:02;101502.03;;;18.93;33.43
61710;BME280;47633;51.494;5.386;2023-04-06T07:43:29;101500.22;;;18.94;33.24
61710;BME280;47633;51.494;5.386;2023-04-06T07:45:56;101498.56;;;19.04;33.13
61710;BME280;47633;51.494;5.386;2023-04-06T07:48:22;101502.28;;;19.01;33.29
61710;BME280;47633;51.494;5.386;2023-04-06T07:50:48;101499.97;;;18.97;33.37
61710;BME280;47633;51.494;5.386;2023-04-06T07:53:13;101497.34;;;18.97;33.57
61710;BME280;47633;51.494;5.386;2023-04-06T07:55:38;101499.88;;;18.98;33.66
61710;BME280;47633;51.494;5.386;2023-04-06T07:58:04;101500.47;;;19.02;33.63
61710;BME280;47633;51.494;5.386;2023-04-06T08:00:30;101505.31;;;19.08;33.70
61710;BME280;47633;51.494;5.386;2023-04-06T08:02:55;101502.94;;;19.16;33.22
61710;BME280;47633;51.494;5.386;2023-04-06T08:05:20;101500.88;;;19.20;33.04
61710;BME280;47633;51.494;5.386;2023-04-06T08:07:46;101505.34;;;19.19;33.20
61710;BME280;47633;51.494;5.386;2023-04-06T08:10:11;101495.59;;;19.20;33.14
61710;BME280;47633;51.494;5.386;2023-04-06T08:12:36;101500.06;;;19.19;33.13
61710;BME280;47633;51.494;5.386;2023-04-06T08:15:02;101499.44;;;19.16;33.06
61710;BME280;47633;51.494;5.386;2023-04-06T08:17:28;101494.28;;;19.14;33.33
61710;BME280;47633;51.494;5.386;2023-04-06T08:19:55;101502.81;;;19.18;33.01
61710;BME280;47633;51.494;5.386;2023-04-06T08:22:20;101505.09;;;19.23;33.07
61710;BME280;47633;51.494;5.386;2023-04-06T08:24:46;101511.72;;;19.17;32.96
61710;BME280;47633;51.494;5.386;2023-04-06T08:27:11;101508.97;;;19.18;33.38
61710;BME280;47633;51.494;5.386;2023-04-06T08:29:38;101504.72;;;19.16;33.06
61710;BME280;47633;51.494;5.386;2023-04-06T08:32:04;101506.16;;;19.20;33.30
61710;BME280;47633;51.494;5.386;2023-04-06T08:34:32;101512.69;;;19.27;33.42
61710;BME280;47633;51.494;5.386;2023-04-06T08:36:58;101510.88;;;19.28;33.53
61710;BME280;47633;51.494;5.386;2023-04-06T08:39:23;101507.19;;;19.30;33.38
61710;BME280;47633;51.494;5.386;2023-04-06T08:41:51;101509.69;;;19.32;33.17
61710;BME280;47633;51.494;5.386;2023-04-06T08:44:17;101510.41;;;19.34;33.43
61710;BME280;47633;51.494;5.386;2023-04-06T08:46:43;101516.69;;;19.33;33.44
61710;BME280;47633;51.494;5.386;2023-04-06T08:49:09;101508.88;;;19.31;33.44
61710;BME280;47633;51.494;5.386;2023-04-06T08:51:36;101518.56;;;19.31;33.72
61710;BME280;47633;51.494;5.386;2023-04-06T08:54:02;101503.69;;;19.30;33.56
61710;BME280;47633;51.494;5.386;2023-04-06T08:56:28;101509.34;;;19.36;33.68
61710;BME280;47633;51.494;5.386;2023-04-06T08:58:54;101513.66;;;19.37;33.71
61710;BME280;47633;51.494;5.386;2023-04-06T09:01:26;101506.38;;;19.41;33.49
61710;BME280;47633;51.494;5.386;2023-04-06T09:03:55;101510.91;;;19.39;33.79
61710;BME280;47633;51.494;5.386;2023-04-06T09:06:21;101517.16;;;19.38;33.89
61710;BME280;47633;51.494;5.386;2023-04-06T09:08:47;101519.56;;;19.41;33.85
61710;BME280;47633;51.494;5.386;2023-04-06T09:11:12;101515.72;;;19.34;33.87
61710;BME280;47633;51.494;5.386;2023-04-06T09:13:45;101515.56;;;19.24;34.09
61710;BME280;47633;51.494;5.386;2023-04-06T09:16:10;101514.72;;;19.24;34.28
61710;BME280;47633;51.494;5.386;2023-04-06T09:18:36;101517.16;;;19.27;34.62
61710;BME280;47633;51.494;5.386;2023-04-06T09:21:03;101520.03;;;19.35;34.43
61710;BME280;47633;51.494;5.386;2023-04-06T09:23:28;101526.75;;;19.39;34.34
61710;BME280;47633;51.494;5.386;2023-04-06T09:26:11;101520.53;;;19.40;34.46
61710;BME280;47633;51.494;5.386;2023-04-06T09:31:28;101519.94;;;19.36;34.79
61710;BME280;47633;51.494;5.386;2023-04-06T09:33:54;101517.38;;;19.24;35.20
61710;BME280;47633;51.494;5.386;2023-04-06T09:36:20;101520.69;;;19.14;35.25
61710;BME280;47633;51.494;5.386;2023-04-06T09:38:55;101515.78;;;19.21;34.95
61710;BME280;47633;51.494;5.386;2023-04-06T09:41:27;101516.41;;;19.25;35.04
61710;BME280;47633;51.494;5.386;2023-04-06T09:46:27;101517.50;;;19.33;34.71
61710;BME280;47633;51.494;5.386;2023-04-06T09:48:55;101523.63;;;19.34;34.56
61710;BME280;47633;51.494;5.386;2023-04-06T09:51:21;101518.47;;;19.32;34.63
61710;BME280;47633;51.494;5.386;2023-04-06T09:53:52;101510.75;;;19.29;34.63
61710;BME280;47633;51.494;5.386;2023-04-06T09:56:20;101518.69;;;19.29;34.63
61710;BME280;47633;51.494;5.386;2023-04-06T09:58:49;101512.91;;;19.24;34.56
61710;BME280;47633;51.494;5.386;2023-04-06T10:01:19;101521.78;;;19.23;34.50
61710;BME280;47633;51.494;5.386;2023-04-06T10:06:20;101507.97;;;19.19;34.75
61710;BME280;47633;51.494;5.386;2023-04-06T10:08:47;101515.91;;;19.19;34.69
61710;BME280;47633;51.494;5.386;2023-04-06T10:11:15;101515.66;;;19.11;34.96
61710;BME280;47633;51.494;5.386;2023-04-06T10:13:41;101513.22;;;19.08;35.21
61710;BME280;47633;51.494;5.386;2023-04-06T10:16:07;101517.78;;;19.06;35.26
61710;BME280;47633;51.494;5.386;2023-04-06T10:18:33;101514.41;;;19.04;35.20
61710;BME280;47633;51.494;5.386;2023-04-06T10:21:11;101512.75;;;19.03;35.38
61710;BME280;47633;51.494;5.386;2023-04-06T10:23:41;101515.25;;;19.05;35.47
61710;BME280;47633;51.494;5.386;2023-04-06T10:26:13;101519.56;;;19.06;35.62
61710;BME280;47633;51.494;5.386;2023-04-06T10:28:41;101521.28;;;19.07;35.66
61710;BME280;47633;51.494;5.386;2023-04-06T10:31:07;101521.28;;;19.07;35.64
61710;BME280;47633;51.494;5.386;2023-04-06T10:33:32;101522.09;;;19.07;35.75
61710;BME280;47633;51.494;5.386;2023-04-06T10:36:09;101520.66;;;19.03;36.24
61710;BME280;47633;51.494;5.386;2023-04-06T10:38:36;101522.22;;;19.06;36.40
61710;BME280;47633;51.494;5.386;2023-04-06T10:41:06;101514.66;;;19.01;36.26
61710;BME280;47633;51.494;5.386;2023-04-06T10:43:36;101515.59;;;19.00;36.39
61710;BME280;47633;51.494;5.386;2023-04-06T10:46:03;101514.66;;;19.01;36.70
61710;BME280;47633;51.494;5.386;2023-04-06T10:48:47;101510.31;;;19.00;36.80
61710;BME280;47633;51.494;5.386;2023-04-06T10:51:14;101511.75;;;19.04;36.78
61710;BME280;47633;51.494;5.386;2023-04-06T10:53:42;101510.09;;;19.03;36.86
61710;BME280;47633;51.494;5.386;2023-04-06T10:56:13;101511.88;;;19.02;37.17
61710;BME280;47633;51.494;5.386;2023-04-06T11:01:16;101502.28;;;19.01;36.89
61710;BME280;47633;51.494;5.386;2023-04-06T11:03:49;101499.53;;;19.03;37.29
61710;BME280;47633;51.494;5.386;2023-04-06T11:06:22;101497.84;;;19.02;37.23
61710;BME280;47633;51.494;5.386;2023-04-06T11:08:48;101495.91;;;19.04;37.56
61710;BME280;47633;51.494;5.386;2023-04-06T11:11:16;101497.72;;;19.03;37.36
61710;BME280;47633;51.494;5.386;2023-04-06T11:13:59;101497.59;;;19.05;37.29
61710;BME280;47633;51.494;5.386;2023-04-06T11:16:29;101493.16;;;19.06;37.34
61710;BME280;47633;51.494;5.386;2023-04-06T11:19:02;101493.28;;;19.04;37.35
61710;BME280;47633;51.494;5.386;2023-04-06T11:26:57;101488.09;;;19.02;37.28
61710;BME280;47633;51.494;5.386;2023-04-06T11:29:24;101482.69;;;19.04;37.61
61710;BME280;47633;51.494;5.386;2023-04-06T11:32:04;101475.88;;;19.01;37.74
61710;BME280;47633;51.494;5.386;2023-04-06T11:34:33;101483.69;;;19.03;37.75
61710;BME280;47633;51.494;5.386;2023-04-06T11:37:01;101472.25;;;19.02;37.61
61710;BME280;47633;51.494;5.386;2023-04-06T11:39:29;101470.25;;;19.06;37.81
61710;BME280;47633;51.494;5.386;2023-04-06T11:41:59;101463.50;;;19.02;37.83
61710;BME280;47633;51.494;5.386;2023-04-06T11:44:38;101459.19;;;19.01;38.11
61710;BME280;47633;51.494;5.386;2023-04-06T11:47:06;101458.22;;;19.02;37.97
61710;BME280;47633;51.494;5.386;2023-04-06T11:49:36;101451.88;;;19.05;37.82
61710;BME280;47633;51.494;5.386;2023-04-06T11:52:03;101451.25;;;19.01;37.92
61710;BME280;47633;51.494;5.386;2023-04-06T11:54:38;101449.22;;;19.05;38.16
61710;BME280;47633;51.494;5.386;2023-04-06T11:57:04;101442.13;;;19.05;38.27
61710;BME280;47633;51.494;5.386;2023-04-06T11:59:31;101443.94;;;19.05;38.13
61710;BME280;47633;51.494;5.386;2023-04-06T12:01:57;101438.78;;;19.03;38.20
61710;BME280;47633;51.494;5.386;2023-04-06T12:04:22;101442.13;;;19.05;38.30
61710;BME280;47633;51.494;5.386;2023-04-06T12:06:48;101437.78;;;19.04;38.21
61710;BME280;47633;51.494;5.386;2023-04-06T12:09:13;101436.97;;;19.03;38.33
61710;BME280;47633;51.494;5.386;2023-04-06T12:11:39;101441.78;;;19.10;38.32
61710;BME280;47633;51.494;5.386;2023-04-06T12:14:05;101437.97;;;19.14;38.36
61710;BME280;47633;51.494;5.386;2023-04-06T12:16:32;101430.38;;;19.09;38.39
61710;BME280;47633;51.494;5.386;2023-04-06T12:18:58;101425.22;;;19.08;38.42
61710;BME280;47633;51.494;5.386;2023-04-06T12:21:23;101434.47;;;19.13;38.44
61710;BME280;47633;51.494;5.386;2023-04-06T12:23:48;101431.34;;;19.08;38.55
61710;BME280;47633;51.494;5.386;2023-04-06T12:26:14;101433.97;;;19.08;38.34
61710;BME280;47633;51.494;5.386;2023-04-06T12:28:39;101428.47;;;19.11;38.46
61710;BME280;47633;51.494;5.386;2023-04-06T12:31:04;101432.03;;;19.10;38.51
61710;BME280;47633;51.494;5.386;2023-04-06T12:33:30;101431.22;;;19.10;38.56
61710;BME280;47633;51.494;5.386;2023-04-06T12:35:55;101434.81;;;19.09;38.62
61710;BME280;47633;51.494;5.386;2023-04-06T12:38:21;101435.16;;;19.04;38.75
61710;BME280;47633;51.494;5.386;2023-04-06T12:40:47;101430.72;;;19.05;38.67
61710;BME280;47633;51.494;5.386;2023-04-06T12:43:12;101417.75;;;19.01;38.53
61710;BME280;47633;51.494;5.386;2023-04-06T12:45:39;101426.88;;;19.09;38.60
61710;BME280;47633;51.494;5.386;2023-04-06T12:48:05;101421.81;;;19.06;38.76
61710;BME280;47633;51.494;5.386;2023-04-06T12:50:30;101416.66;;;19.04;39.11
61710;BME280;47633;51.494;5.386;2023-04-06T12:52:56;101418.13;;;19.08;39.88
61710;BME280;47633;51.494;5.386;2023-04-06T12:55:21;101420.66;;;19.10;39.73
61710;BME280;47633;51.494;5.386;2023-04-06T12:57:46;101411.53;;;19.14;40.26
61710;BME280;47633;51.494;5.386;2023-04-06T13:00:12;101413.94;;;19.17;39.97